createdAt,value
2023-01-29T00:00:10.594Z,84.47
2023-01-29T00:02:41.134Z,84.42
2023-01-29T00:05:25.968Z,84.39
2023-01-29T00:07:55.502Z,84.45
2023-01-29T00:10:24.254Z,84.11
2023-01-29T00:12:51.993Z,84.71
2023-01-29T00:15:21.109Z,84.28
2023-01-29T00:17:48.524Z,84.28
2023-01-29T00:20:16.744Z,83.66
2023-01-29T00:22:44.689Z,83.52
2023-01-29T00:25:12.413Z,83.90
2023-01-29T00:27:40.120Z,83.33
2023-01-29T00:30:15.230Z,83.26
2023-01-29T00:32:43.003Z,83.78
2023-01-29T00:35:10.583Z,83.25
2023-01-29T00:37:38.502Z,83.01
2023-01-29T00:40:06.572Z,83.05
2023-01-29T00:42:52.912Z,82.82
2023-01-29T00:45:20.503Z,83.13
2023-01-29T00:47:48.021Z,82.95
2023-01-29T00:50:15.705Z,82.87
2023-01-29T00:52:44.308Z,83.00
2023-01-29T00:55:12.522Z,83.44
2023-01-29T00:57:40.692Z,83.21
2023-01-29T01:00:12.085Z,82.93
2023-01-29T01:02:58.579Z,82.51
2023-01-29T01:05:27.149Z,83.03
2023-01-29T01:07:57.653Z,82.68
2023-01-29T01:10:29.483Z,82.62
2023-01-29T01:13:03.111Z,82.52
2023-01-29T01:15:34.906Z,82.56
2023-01-29T01:18:04.062Z,82.21
2023-01-29T01:20:33.651Z,82.81
2023-01-29T01:23:01.486Z,82.75
2023-01-29T01:25:29.367Z,82.91
2023-01-29T01:30:27.034Z,82.91
2023-01-29T01:32:54.878Z,82.57
2023-01-29T01:35:22.168Z,83.05
2023-01-29T01:37:49.762Z,82.90
2023-01-29T01:40:23.371Z,82.26
2023-01-29T01:42:54.269Z,81.99
2023-01-29T01:45:35.847Z,81.81
2023-01-29T01:48:06.680Z,82.27
2023-01-29T01:50:50.180Z,81.47
2023-01-29T01:53:42.450Z,81.63
2023-01-29T01:56:14.353Z,81.75
2023-01-29T01:58:47.405Z,81.05
2023-01-29T02:01:14.838Z,81.81
2023-01-29T02:04:07.622Z,81.36
2023-01-29T02:06:54.737Z,81.23
2023-01-29T02:09:35.885Z,81.53
2023-01-29T02:12:07.732Z,80.32
2023-01-29T02:14:41.210Z,81.35
2023-01-29T02:17:28.619Z,80.75
2023-01-29T02:20:24.682Z,80.60
2023-01-29T02:22:59.252Z,80.01
2023-01-29T02:25:44.946Z,79.72
2023-01-29T02:28:22.208Z,80.01
2023-01-29T02:31:09.758Z,79.59
2023-01-29T02:33:55.689Z,79.51
2023-01-29T02:36:58.245Z,79.08
2023-01-29T02:39:46.620Z,79.40
2023-01-29T02:42:28.994Z,78.82
2023-01-29T02:45:03.833Z,78.87
2023-01-29T02:47:43.782Z,78.10
2023-01-29T02:50:16.924Z,78.71
2023-01-29T02:52:51.002Z,78.32
2023-01-29T02:55:29.588Z,78.68
2023-01-29T02:58:05.955Z,78.66
2023-01-29T03:00:40.400Z,78.54
2023-01-29T03:03:16.656Z,78.20
2023-01-29T03:06:20.591Z,78.06
2023-01-29T03:08:55.834Z,77.67
2023-01-29T03:11:23.596Z,78.03
2023-01-29T03:14:00.755Z,77.35
2023-01-29T03:16:43.031Z,77.63
2023-01-29T03:19:21.658Z,77.46
2023-01-29T03:22:04.394Z,77.42
2023-01-29T03:25:05.302Z,77.83
2023-01-29T03:27:59.705Z,77.28
2023-01-29T03:30:55.554Z,77.66
2023-01-29T03:34:00.303Z,77.87
2023-01-29T03:37:03.737Z,76.97
2023-01-29T03:39:31.795Z,76.95
2023-01-29T03:42:11.664Z,77.05
2023-01-29T03:45:06.271Z,76.77
2023-01-29T03:47:57.374Z,78.09
2023-01-29T03:51:07.981Z,77.67
2023-01-29T03:54:07.292Z,77.33
2023-01-29T03:56:45.599Z,76.41
2023-01-29T03:59:18.873Z,76.41
2023-01-29T04:02:13.024Z,76.40
2023-01-29T04:04:45.703Z,76.47
2023-01-29T04:07:18.042Z,75.94
2023-01-29T04:09:58.713Z,76.19
2023-01-29T04:12:36.737Z,76.51
2023-01-29T04:15:08.104Z,76.79
2023-01-29T04:17:40.557Z,76.25
2023-01-29T04:20:22.575Z,76.57
2023-01-29T04:22:52.802Z,76.84
2023-01-29T04:25:29.909Z,76.58
2023-01-29T04:28:26.291Z,76.76
2023-01-29T04:31:08.387Z,77.25
2023-01-29T04:33:44.811Z,76.70
2023-01-29T04:36:15.573Z,77.92
2023-01-29T04:39:02.190Z,77.33
2023-01-29T04:41:54.752Z,76.77
2023-01-29T04:44:54.791Z,77.03
2023-01-29T04:47:36.576Z,76.71
2023-01-29T04:50:19.756Z,77.56
2023-01-29T04:53:00.888Z,76.67
2023-01-29T04:55:43.806Z,77.13
2023-01-29T04:58:14.013Z,76.83
2023-01-29T05:00:49.452Z,77.47
2023-01-29T05:03:19.929Z,76.77
2023-01-29T05:05:48.917Z,76.82
2023-01-29T05:08:19.694Z,77.15
2023-01-29T05:10:52.560Z,76.78
2023-01-29T05:13:22.375Z,77.17
2023-01-29T05:16:04.474Z,77.12
2023-01-29T05:18:32.914Z,77.86
2023-01-29T05:21:05.116Z,77.41
2023-01-29T05:23:32.590Z,77.11
2023-01-29T05:26:00.170Z,77.21
2023-01-29T05:28:27.670Z,77.21
2023-01-29T05:30:57.323Z,77.13
2023-01-29T05:33:30.543Z,77.76
2023-01-29T05:36:00.379Z,77.98
2023-01-29T05:38:28.072Z,77.35
2023-01-29T05:40:55.629Z,77.60
2023-01-29T05:43:25.440Z,77.62
2023-01-29T05:46:00.868Z,77.80
2023-01-29T05:48:29.514Z,77.35
2023-01-29T05:51:05.147Z,77.73
2023-01-29T05:53:33.370Z,77.30
2023-01-29T05:56:06.330Z,77.75
2023-01-29T05:58:34.986Z,77.55
2023-01-29T06:01:13.958Z,77.58
2023-01-29T06:03:41.338Z,77.67
2023-01-29T06:06:08.915Z,77.64
2023-01-29T06:08:36.544Z,77.48
2023-01-29T06:11:04.892Z,77.65
2023-01-29T06:13:32.154Z,77.59
2023-01-29T06:15:59.883Z,77.44
2023-01-29T06:18:27.230Z,77.86
2023-01-29T06:20:54.860Z,77.60
2023-01-29T06:23:22.846Z,77.57
2023-01-29T06:25:50.201Z,77.21
2023-01-29T06:28:17.483Z,76.96
2023-01-29T06:30:44.905Z,77.65
2023-01-29T06:33:12.249Z,77.42
2023-01-29T06:35:39.649Z,77.51
2023-01-29T06:38:07.289Z,76.82
2023-01-29T06:40:34.779Z,77.35
2023-01-29T06:43:02.209Z,76.94
2023-01-29T06:45:29.824Z,76.96
2023-01-29T06:47:58.031Z,76.72
2023-01-29T06:50:26.137Z,76.85
2023-01-29T06:52:53.690Z,76.81
2023-01-29T06:55:21.226Z,76.63
2023-01-29T06:57:48.590Z,76.25
2023-01-29T07:00:17.768Z,76.54
2023-01-29T07:02:45.456Z,76.53
2023-01-29T07:05:13.155Z,76.55
2023-01-29T07:07:40.838Z,76.84
2023-01-29T07:10:09.281Z,76.68
2023-01-29T07:12:36.916Z,76.53
2023-01-29T07:15:04.896Z,76.15
2023-01-29T07:17:32.260Z,76.11
2023-01-29T07:19:59.980Z,76.12
2023-01-29T07:22:27.587Z,76.32
2023-01-29T07:24:55.064Z,76.23
2023-01-29T07:27:22.652Z,76.21
2023-01-29T07:29:50.373Z,76.19
2023-01-29T07:32:17.975Z,75.95
2023-01-29T07:34:45.276Z,75.67
2023-01-29T07:37:12.911Z,75.45
2023-01-29T07:39:40.373Z,75.34
2023-01-29T07:42:07.741Z,75.17
2023-01-29T07:44:35.561Z,75.26
2023-01-29T07:47:03.102Z,75.21
2023-01-29T07:49:30.480Z,75.25
2023-01-29T07:51:58.313Z,75.08
2023-01-29T07:54:25.834Z,75.16
2023-01-29T07:56:53.051Z,74.92
2023-01-29T07:59:20.691Z,74.76
2023-01-29T08:01:48.318Z,74.48
2023-01-29T08:04:15.854Z,74.72
2023-01-29T08:06:43.942Z,74.32
2023-01-29T08:09:11.449Z,74.34
2023-01-29T08:11:38.983Z,74.21
2023-01-29T08:14:06.610Z,74.10
2023-01-29T08:16:34.247Z,74.04
2023-01-29T08:19:04.619Z,74.16
2023-01-29T08:21:32.439Z,74.31
2023-01-29T08:26:32.473Z,73.84
2023-01-29T08:29:00.252Z,74.08
2023-01-29T08:31:27.749Z,73.58
2023-01-29T08:33:55.923Z,73.45
2023-01-29T08:36:23.658Z,73.12
2023-01-29T08:38:51.191Z,73.34
2023-01-29T08:41:18.563Z,72.80
2023-01-29T08:43:46.970Z,73.15
2023-01-29T08:46:14.628Z,73.07
2023-01-29T08:48:42.285Z,72.85
2023-01-29T08:51:10.209Z,72.43
2023-01-29T08:53:37.995Z,72.67
2023-01-29T08:56:05.815Z,72.70
2023-01-29T08:58:33.401Z,72.84
2023-01-29T09:01:11.658Z,72.54
2023-01-29T09:03:44.165Z,72.59
2023-01-29T09:06:12.813Z,72.64
2023-01-29T09:08:40.663Z,72.79
2023-01-29T09:11:08.411Z,72.49
2023-01-29T09:13:35.966Z,72.41
2023-01-29T09:16:04.485Z,71.94
2023-01-29T09:18:32.632Z,72.17
2023-01-29T09:20:59.979Z,72.08
2023-01-29T09:23:27.292Z,71.83
2023-01-29T09:25:54.931Z,72.02
2023-01-29T09:28:22.365Z,72.10
2023-01-29T09:30:50.149Z,72.28
2023-01-29T09:33:18.729Z,71.96
2023-01-29T09:35:47.313Z,72.16
2023-01-29T09:38:15.066Z,72.18
2023-01-29T09:41:06.759Z,72.05
2023-01-29T09:43:49.544Z,71.56
2023-01-29T09:46:42.961Z,71.75
2023-01-29T09:49:46.060Z,72.10
2023-01-29T09:52:25.420Z,71.82
2023-01-29T09:55:05.053Z,71.20
2023-01-29T09:57:55.143Z,71.82
2023-01-29T10:00:52.367Z,71.28
2023-01-29T10:03:35.140Z,71.34
2023-01-29T10:06:05.824Z,71.13
2023-01-29T10:08:48.361Z,71.25
2023-01-29T10:11:35.546Z,71.31
2023-01-29T10:14:21.489Z,71.19
2023-01-29T10:16:57.792Z,71.36
2023-01-29T10:19:46.067Z,71.12
2023-01-29T10:22:28.431Z,71.13
2023-01-29T10:25:03.430Z,71.11
2023-01-29T10:27:38.653Z,70.98
2023-01-29T10:30:40.539Z,70.80
2023-01-29T10:33:18.342Z,71.07
2023-01-29T10:35:55.935Z,70.79
2023-01-29T10:38:49.243Z,71.10
2023-01-29T10:41:31.208Z,70.90
2023-01-29T10:44:05.294Z,70.62
2023-01-29T10:46:59.126Z,70.79
2023-01-29T10:49:41.587Z,70.92
2023-01-29T10:52:37.957Z,70.49
2023-01-29T10:55:14.355Z,70.81
2023-01-29T10:58:02.249Z,70.87
2023-01-29T11:00:39.673Z,70.90
2023-01-29T11:03:27.041Z,70.47
2023-01-29T11:06:11.989Z,70.49
2023-01-29T11:09:03.918Z,70.67
2023-01-29T11:11:39.639Z,70.86
2023-01-29T11:14:23.301Z,70.95
2023-01-29T11:16:51.688Z,70.79
2023-01-29T11:19:36.267Z,70.94
2023-01-29T11:22:04.632Z,70.73
2023-01-29T11:24:32.315Z,70.80
2023-01-29T11:27:00.872Z,70.77
2023-01-29T11:29:35.298Z,70.74
2023-01-29T11:32:07.787Z,71.44
2023-01-29T11:34:35.168Z,70.73
2023-01-29T11:37:05.563Z,70.82
2023-01-29T11:39:33.504Z,70.70
2023-01-29T11:42:05.448Z,70.65
2023-01-29T11:44:43.871Z,70.27
2023-01-29T11:47:17.137Z,70.25
2023-01-29T11:49:57.068Z,70.45
2023-01-29T11:52:27.807Z,70.34
2023-01-29T11:55:02.652Z,69.87
2023-01-29T11:57:40.844Z,71.21
2023-01-29T12:00:23.665Z,70.87
2023-01-29T12:03:17.032Z,70.71
2023-01-29T12:05:58.838Z,70.74
2023-01-29T12:08:32.534Z,70.54
2023-01-29T12:11:31.487Z,71.22
2023-01-29T12:14:05.169Z,70.90
2023-01-29T12:16:44.421Z,70.56
2023-01-29T12:19:31.882Z,70.57
2023-01-29T12:22:06.383Z,70.72
2023-01-29T12:25:21.172Z,71.10
2023-01-29T12:27:58.997Z,71.27
2023-01-29T12:30:43.849Z,70.88
2023-01-29T12:33:27.141Z,71.01
2023-01-29T12:36:02.793Z,71.39
2023-01-29T12:38:30.523Z,71.62
2023-01-29T12:41:01.101Z,71.23
2023-01-29T12:43:36.680Z,71.39
2023-01-29T12:46:07.789Z,71.87
2023-01-29T12:48:39.775Z,72.36
2023-01-29T12:51:14.560Z,71.87
2023-01-29T12:53:55.464Z,72.04
2023-01-29T12:56:34.831Z,72.04
2023-01-29T12:59:10.862Z,71.99
2023-01-29T13:01:45.549Z,72.59
2023-01-29T13:04:29.822Z,72.76
2023-01-29T13:07:11.914Z,72.71
2023-01-29T13:09:45.402Z,72.85
2023-01-29T13:12:18.986Z,73.27
2023-01-29T13:15:04.029Z,73.04
2023-01-29T13:17:39.710Z,73.18
2023-01-29T13:20:19.956Z,72.72
2023-01-29T13:22:48.742Z,73.03
2023-01-29T13:25:18.707Z,72.95
2023-01-29T13:27:48.251Z,73.11
2023-01-29T13:30:30.710Z,73.35
2023-01-29T13:33:11.711Z,73.37
2023-01-29T13:35:42.963Z,73.78
2023-01-29T13:38:25.450Z,73.52
2023-01-29T13:40:56.695Z,73.23
2023-01-29T13:43:24.725Z,73.34
2023-01-29T13:45:54.630Z,73.72
2023-01-29T13:48:37.037Z,73.21
2023-01-29T13:51:17.286Z,74.20
2023-01-29T13:54:16.897Z,73.99
2023-01-29T13:56:59.746Z,74.16
2023-01-29T13:59:53.774Z,74.11
2023-01-29T14:02:24.680Z,74.25
2023-01-29T14:04:52.818Z,74.47
2023-01-29T14:07:41.011Z,73.82
2023-01-29T14:10:22.858Z,74.12
2023-01-29T14:13:05.330Z,74.86
2023-01-29T14:15:37.851Z,74.27
2023-01-29T14:18:11.612Z,74.22
2023-01-29T14:20:46.093Z,74.64
2023-01-29T14:23:47.570Z,74.81
2023-01-29T14:26:45.570Z,74.84
2023-01-29T14:29:18.759Z,74.89
2023-01-29T14:31:59.706Z,74.95
2023-01-29T14:34:52.387Z,75.33
2023-01-29T14:37:36.988Z,75.56
2023-01-29T14:40:19.654Z,74.70
2023-01-29T14:43:08.188Z,75.26
2023-01-29T14:45:42.617Z,75.37
2023-01-29T14:48:10.596Z,75.71
2023-01-29T14:50:42.942Z,75.54
2023-01-29T14:53:23.525Z,75.48
2023-01-29T14:56:09.578Z,75.90
2023-01-29T14:58:46.716Z,75.65
2023-01-29T15:01:35.895Z,75.81
2023-01-29T15:04:05.039Z,76.08
2023-01-29T15:06:46.640Z,75.65
2023-01-29T15:09:36.725Z,75.68
2023-01-29T15:12:29.014Z,75.75
2023-01-29T15:15:27.634Z,75.85
2023-01-29T15:18:03.455Z,76.24
2023-01-29T15:20:35.746Z,76.82
2023-01-29T15:23:04.900Z,76.47
2023-01-29T15:25:38.132Z,76.25
2023-01-29T15:28:10.721Z,76.07
2023-01-29T15:30:38.274Z,76.23
2023-01-29T15:33:11.116Z,76.74
2023-01-29T15:35:41.751Z,76.82
2023-01-29T15:38:20.775Z,77.04
2023-01-29T15:40:57.122Z,77.61
2023-01-29T15:43:26.291Z,77.57
2023-01-29T15:46:07.776Z,77.98
2023-01-29T15:48:46.438Z,78.25
2023-01-29T15:51:20.795Z,78.09
2023-01-29T15:53:58.862Z,78.13
2023-01-29T15:56:31.377Z,78.13
2023-01-29T15:59:07.238Z,78.22
2023-01-29T16:01:37.085Z,78.17
2023-01-29T16:04:05.284Z,78.04
2023-01-29T16:06:41.070Z,78.68
2023-01-29T16:09:13.004Z,78.94
2023-01-29T16:11:40.976Z,79.15
2023-01-29T16:14:15.047Z,78.70
2023-01-29T16:16:45.456Z,78.85
2023-01-29T16:19:28.978Z,79.23
2023-01-29T16:22:06.416Z,79.11
2023-01-29T16:24:38.244Z,79.25
2023-01-29T16:27:15.395Z,79.08
2023-01-29T16:29:47.412Z,79.14
2023-01-29T16:32:16.584Z,79.49
2023-01-29T16:34:48.594Z,79.54
2023-01-29T16:37:24.363Z,78.96
2023-01-29T16:39:53.219Z,79.76
2023-01-29T16:42:29.710Z,79.54
2023-01-29T16:44:57.322Z,79.21
2023-01-29T16:47:44.185Z,79.56
2023-01-29T16:50:18.168Z,79.43
2023-01-29T16:53:17.385Z,79.44
2023-01-29T16:55:50.582Z,79.37
2023-01-29T16:58:22.132Z,79.11
2023-01-29T17:00:56.919Z,79.54
2023-01-29T17:03:28.568Z,79.35
2023-01-29T17:05:56.249Z,79.48
2023-01-29T17:08:34.046Z,79.16
2023-01-29T17:11:02.022Z,79.51
2023-01-29T17:13:38.213Z,79.80
2023-01-29T17:16:36.224Z,79.59
2023-01-29T17:19:18.512Z,79.65
2023-01-29T17:21:47.338Z,79.22
2023-01-29T17:24:15.142Z,79.23
2023-01-29T17:26:43.122Z,79.15
2023-01-29T17:29:15.777Z,79.15
2023-01-29T17:31:44.540Z,79.67
2023-01-29T17:34:16.643Z,79.42
2023-01-29T17:36:45.369Z,79.72
2023-01-29T17:39:21.035Z,79.76
2023-01-29T17:41:56.038Z,79.34
2023-01-29T17:44:26.290Z,79.58
2023-01-29T17:46:54.042Z,79.33
2023-01-29T17:49:30.519Z,79.48
2023-01-29T17:51:58.792Z,79.27
2023-01-29T17:54:26.485Z,79.28
2023-01-29T17:56:54.599Z,79.23
2023-01-29T17:59:24.305Z,79.36
2023-01-29T18:01:53.391Z,79.64
2023-01-29T18:04:21.330Z,79.75
2023-01-29T18:06:51.287Z,79.84
2023-01-29T18:09:23.037Z,79.47
2023-01-29T18:11:51.411Z,79.44
2023-01-29T18:14:19.040Z,79.41
2023-01-29T18:16:47.302Z,79.80
2023-01-29T18:19:20.964Z,79.36
2023-01-29T18:21:49.492Z,79.51
2023-01-29T18:24:17.233Z,79.82
2023-01-29T18:26:45.601Z,79.17
2023-01-29T18:29:13.694Z,79.66
2023-01-29T18:31:41.264Z,79.48
2023-01-29T18:34:09.626Z,79.21
2023-01-29T18:36:37.366Z,79.31
2023-01-29T18:39:04.974Z,79.27
2023-01-29T18:41:32.471Z,79.58
2023-01-29T18:44:00.167Z,79.34
2023-01-29T18:46:27.879Z,79.33
2023-01-29T18:48:55.331Z,79.34
2023-01-29T18:51:22.989Z,78.86
2023-01-29T18:53:54.256Z,78.65
2023-01-29T18:56:21.879Z,78.96
2023-01-29T18:58:52.358Z,79.07
2023-01-29T19:01:24.161Z,79.03
2023-01-29T19:03:52.509Z,78.77
2023-01-29T19:06:19.889Z,78.86
2023-01-29T19:08:48.121Z,78.82
2023-01-29T19:11:15.862Z,79.17
2023-01-29T19:13:44.379Z,79.14
2023-01-29T19:16:13.734Z,78.92
2023-01-29T19:18:41.823Z,79.30
2023-01-29T19:21:12.849Z,78.67
2023-01-29T19:23:42.851Z,79.20
2023-01-29T19:26:10.898Z,79.32
2023-01-29T19:28:38.558Z,79.58
2023-01-29T19:31:06.605Z,79.49
2023-01-29T19:33:34.098Z,79.30
2023-01-29T19:36:02.122Z,79.34
2023-01-29T19:38:33.665Z,79.83
2023-01-29T19:41:24.971Z,79.46
2023-01-29T19:43:53.665Z,79.96
2023-01-29T19:46:21.426Z,79.28
2023-01-29T19:48:49.067Z,78.99
2023-01-29T19:51:16.820Z,79.60
2023-01-29T19:53:44.729Z,79.39
2023-01-29T19:56:14.972Z,79.19
2023-01-29T19:58:43.151Z,78.75
2023-01-29T20:01:21.794Z,79.42
2023-01-29T20:03:50.311Z,79.27
2023-01-29T20:06:20.321Z,79.17
2023-01-29T20:08:47.631Z,78.91
2023-01-29T20:11:16.844Z,79.29
2023-01-29T20:13:47.905Z,79.00
2023-01-29T20:16:15.524Z,79.37
2023-01-29T20:18:43.945Z,79.16
2023-01-29T20:21:14.152Z,79.31
2023-01-29T20:23:44.907Z,79.34
2023-01-29T20:26:15.990Z,79.57
2023-01-29T20:28:46.896Z,79.44
2023-01-29T20:31:15.237Z,79.47
2023-01-29T20:33:42.885Z,79.05
2023-01-29T20:36:12.749Z,79.48
2023-01-29T20:38:40.307Z,78.76
2023-01-29T20:41:11.675Z,79.49
2023-01-29T20:43:39.241Z,78.82
2023-01-29T20:46:07.586Z,78.89
2023-01-29T20:48:35.412Z,79.76
2023-01-29T20:51:11.588Z,79.17
2023-01-29T20:53:41.424Z,79.63
2023-01-29T20:56:11.496Z,79.29
2023-01-29T20:58:41.136Z,79.25
2023-01-29T21:01:13.011Z,79.44
2023-01-29T21:03:40.634Z,79.02
2023-01-29T21:06:09.763Z,79.54
2023-01-29T21:08:38.922Z,80.10
2023-01-29T21:11:08.399Z,79.18
2023-01-29T21:13:36.455Z,79.96
2023-01-29T21:16:04.631Z,79.71
2023-01-29T21:18:32.445Z,79.45
2023-01-29T21:21:00.023Z,79.45
2023-01-29T21:23:27.473Z,79.48
2023-01-29T21:26:01.555Z,79.22
2023-01-29T21:28:29.369Z,79.63
2023-01-29T21:31:11.703Z,79.80
2023-01-29T21:33:39.295Z,79.95
2023-01-29T21:36:07.909Z,79.90
2023-01-29T21:38:35.535Z,79.57
2023-01-29T21:41:05.676Z,79.54
2023-01-29T21:43:33.737Z,79.38
2023-01-29T21:46:11.540Z,79.07
2023-01-29T21:49:30.259Z,79.42
2023-01-29T21:51:58.104Z,79.69
2023-01-29T21:54:31.395Z,80.34
2023-01-29T21:56:58.741Z,80.02
2023-01-29T21:59:26.076Z,80.23
2023-01-29T22:01:53.675Z,79.74
2023-01-29T22:04:21.117Z,79.59
2023-01-29T22:06:48.778Z,79.63
2023-01-29T22:09:16.385Z,80.21
2023-01-29T22:11:44.596Z,80.14
2023-01-29T22:14:12.447Z,80.16
2023-01-29T22:16:40.366Z,79.88
2023-01-29T22:19:07.830Z,80.21
2023-01-29T22:21:36.021Z,79.73
2023-01-29T22:24:03.764Z,80.00
2023-01-29T22:26:32.234Z,80.45
2023-01-29T22:28:59.846Z,79.77
2023-01-29T22:31:27.417Z,79.79
2023-01-29T22:33:54.732Z,79.71
2023-01-29T22:36:22.381Z,80.07
2023-01-29T22:38:49.895Z,80.47
2023-01-29T22:41:17.308Z,80.73
2023-01-29T22:43:44.932Z,80.63
2023-01-29T22:46:12.661Z,80.13
2023-01-29T22:48:40.059Z,80.08
2023-01-29T22:51:10.660Z,80.06
2023-01-29T22:53:44.559Z,80.63
2023-01-29T22:56:12.384Z,80.90
2023-01-29T22:58:41.277Z,80.68
2023-01-29T23:01:09.263Z,79.97
2023-01-29T23:03:37.097Z,80.91
2023-01-29T23:06:04.694Z,80.68
2023-01-29T23:08:34.018Z,80.34
2023-01-29T23:11:15.241Z,80.25
2023-01-29T23:13:50.393Z,81.08
2023-01-29T23:16:18.941Z,81.16
2023-01-29T23:18:50.421Z,80.59
2023-01-29T23:21:18.958Z,80.88
2023-01-29T23:23:48.274Z,81.31
2023-01-29T23:26:34.860Z,81.43
2023-01-29T23:29:03.988Z,81.50
2023-01-29T23:31:32.298Z,81.68
2023-01-29T23:34:00.121Z,81.71
2023-01-29T23:36:27.658Z,81.65
2023-01-29T23:38:55.299Z,81.44
2023-01-29T23:41:22.812Z,81.87
2023-01-29T23:43:50.311Z,81.43
2023-01-29T23:46:17.836Z,81.89
2023-01-29T23:48:45.352Z,82.37
2023-01-29T23:51:12.847Z,81.83
2023-01-29T23:53:40.495Z,81.82
2023-01-29T23:56:08.636Z,81.66
2023-01-29T23:58:36.201Z,81.75
